sensor_id;sensor_type;location;lat;lon;timestamp;P1;durP1;ratioP1;P2;durP2;ratioP2
3959;SDS011;1994;48.640;8.894;2023-04-15T00:01:24;1.87;;;1.67;;
3959;SDS011;1994;48.640;8.894;2023-04-15T00:03:54;1.87;;;1.30;;
3959;SDS011;1994;48.640;8.894;2023-04-15T00:06:20;1.93;;;1.80;;
3959;SDS011;1994;48.640;8.894;2023-04-15T00:08:47;1.60;;;1.33;;
3959;SDS011;1994;48.640;8.894;2023-04-15T00:11:13;5.87;;;1.70;;
3959;SDS011;1994;48.640;8.894;2023-04-15T00:13:39;3.17;;;1.63;;
3959;SDS011;1994;48.640;8.894;2023-04-15T00:16:05;1.50;;;1.40;;
3959;SDS011;1994;48.640;8.894;2023-04-15T00:18:33;2.33;;;1.70;;
3959;SDS011;1994;48.640;8.894;2023-04-15T00:20:59;2.30;;;1.90;;
3959;SDS011;1994;48.640;8.894;2023-04-15T00:23:25;1.77;;;1.67;;
3959;SDS011;1994;48.640;8.894;2023-04-15T00:25:51;2.20;;;1.30;;
3959;SDS011;1994;48.640;8.894;2023-04-15T00:28:17;9.73;;;3.43;;
3959;SDS011;1994;48.640;8.894;2023-04-15T00:30:43;2.83;;;2.37;;
3959;SDS011;1994;48.640;8.894;2023-04-15T00:33:09;4.80;;;2.13;;
3959;SDS011;1994;48.640;8.894;2023-04-15T00:35:36;2.23;;;2.03;;
3959;SDS011;1994;48.640;8.894;2023-04-15T00:38:02;2.03;;;1.83;;
3959;SDS011;1994;48.640;8.894;2023-04-15T00:40:30;3.77;;;2.17;;
3959;SDS011;1994;48.640;8.894;2023-04-15T00:42:55;1.83;;;1.70;;
3959;SDS011;1994;48.640;8.894;2023-04-15T00:45:21;1.87;;;1.77;;
3959;SDS011;1994;48.640;8.894;2023-04-15T00:47:48;1.77;;;1.67;;
3959;SDS011;1994;48.640;8.894;2023-04-15T00:50:15;1.63;;;1.50;;
3959;SDS011;1994;48.640;8.894;2023-04-15T00:52:40;2.70;;;1.53;;
3959;SDS011;1994;48.640;8.894;2023-04-15T00:55:06;3.90;;;2.23;;
3959;SDS011;1994;48.640;8.894;2023-04-15T00:57:33;6.83;;;4.80;;
3959;SDS011;1994;48.640;8.894;2023-04-15T01:00:00;4.27;;;3.30;;
3959;SDS011;1994;48.640;8.894;2023-04-15T01:02:28;3.10;;;2.30;;
3959;SDS011;1994;48.640;8.894;2023-04-15T01:04:55;4.17;;;3.20;;
3959;SDS011;1994;48.640;8.894;2023-04-15T01:07:21;8.83;;;3.20;;
3959;SDS011;1994;48.640;8.894;2023-04-15T01:09:47;23.20;;;7.80;;
3959;SDS011;1994;48.640;8.894;2023-04-15T01:12:13;28.77;;;9.60;;
3959;SDS011;1994;48.640;8.894;2023-04-15T01:14:41;34.30;;;15.40;;
3959;SDS011;1994;48.640;8.894;2023-04-15T01:17:07;31.20;;;15.90;;
3959;SDS011;1994;48.640;8.894;2023-04-15T01:19:33;30.20;;;13.30;;
3959;SDS011;1994;48.640;8.894;2023-04-15T01:22:01;20.10;;;10.27;;
3959;SDS011;1994;48.640;8.894;2023-04-15T01:24:27;14.30;;;8.13;;
3959;SDS011;1994;48.640;8.894;2023-04-15T01:26:56;6.50;;;4.03;;
3959;SDS011;1994;48.640;8.894;2023-04-15T01:29:22;2.93;;;2.10;;
3959;SDS011;1994;48.640;8.894;2023-04-15T01:31:51;2.00;;;1.80;;
3959;SDS011;1994;48.640;8.894;2023-04-15T01:34:19;3.33;;;2.07;;
3959;SDS011;1994;48.640;8.894;2023-04-15T01:36:46;2.30;;;1.77;;
3959;SDS011;1994;48.640;8.894;2023-04-15T01:39:12;1.67;;;1.57;;
3959;SDS011;1994;48.640;8.894;2023-04-15T01:41:37;2.50;;;1.90;;
3959;SDS011;1994;48.640;8.894;2023-04-15T01:44:04;1.97;;;1.70;;
3959;SDS011;1994;48.640;8.894;2023-04-15T01:46:31;1.93;;;1.83;;
3959;SDS011;1994;48.640;8.894;2023-04-15T01:48:56;2.07;;;1.60;;
3959;SDS011;1994;48.640;8.894;2023-04-15T01:51:22;2.47;;;2.27;;
3959;SDS011;1994;48.640;8.894;2023-04-15T01:53:48;1.83;;;1.73;;
3959;SDS011;1994;48.640;8.894;2023-04-15T01:56:14;3.03;;;2.30;;
3959;SDS011;1994;48.640;8.894;2023-04-15T01:58:40;1.77;;;1.60;;
3959;SDS011;1994;48.640;8.894;2023-04-15T02:01:06;2.73;;;2.23;;
3959;SDS011;1994;48.640;8.894;2023-04-15T02:03:31;2.00;;;1.53;;
3959;SDS011;1994;48.640;8.894;2023-04-15T02:05:57;6.00;;;2.30;;
3959;SDS011;1994;48.640;8.894;2023-04-15T02:08:23;3.43;;;1.90;;
3959;SDS011;1994;48.640;8.894;2023-04-15T02:10:49;1.30;;;1.30;;
3959;SDS011;1994;48.640;8.894;2023-04-15T02:13:14;2.60;;;1.90;;
3959;SDS011;1994;48.640;8.894;2023-04-15T02:15:45;6.80;;;2.03;;
3959;SDS011;1994;48.640;8.894;2023-04-15T02:18:16;1.90;;;1.80;;
3959;SDS011;1994;48.640;8.894;2023-04-15T02:20:42;1.87;;;1.63;;
3959;SDS011;1994;48.640;8.894;2023-04-15T02:23:08;4.70;;;1.97;;
3959;SDS011;1994;48.640;8.894;2023-04-15T02:25:35;4.30;;;2.30;;
3959;SDS011;1994;48.640;8.894;2023-04-15T02:28:01;1.87;;;1.77;;
3959;SDS011;1994;48.640;8.894;2023-04-15T02:30:27;2.10;;;1.70;;
3959;SDS011;1994;48.640;8.894;2023-04-15T02:32:52;4.87;;;2.20;;
3959;SDS011;1994;48.640;8.894;2023-04-15T02:35:18;2.60;;;1.70;;
3959;SDS011;1994;48.640;8.894;2023-04-15T02:37:44;1.60;;;1.50;;
3959;SDS011;1994;48.640;8.894;2023-04-15T02:40:10;1.77;;;1.67;;
3959;SDS011;1994;48.640;8.894;2023-04-15T02:42:37;1.50;;;1.40;;
3959;SDS011;1994;48.640;8.894;2023-04-15T02:45:04;1.50;;;1.40;;
3959;SDS011;1994;48.640;8.894;2023-04-15T02:47:31;1.40;;;1.30;;
3959;SDS011;1994;48.640;8.894;2023-04-15T02:49:58;1.97;;;1.60;;
3959;SDS011;1994;48.640;8.894;2023-04-15T02:52:25;5.90;;;1.70;;
3959;SDS011;1994;48.640;8.894;2023-04-15T02:54:51;1.77;;;1.67;;
3959;SDS011;1994;48.640;8.894;2023-04-15T02:57:21;1.27;;;1.17;;
3959;SDS011;1994;48.640;8.894;2023-04-15T02:59:47;1.63;;;1.53;;
3959;SDS011;1994;48.640;8.894;2023-04-15T03:02:12;4.33;;;2.13;;
3959;SDS011;1994;48.640;8.894;2023-04-15T03:04:38;1.87;;;1.40;;
3959;SDS011;1994;48.640;8.894;2023-04-15T03:07:04;2.33;;;1.37;;
3959;SDS011;1994;48.640;8.894;2023-04-15T03:09:30;1.90;;;1.77;;
3959;SDS011;1994;48.640;8.894;2023-04-15T03:11:56;4.40;;;2.23;;
3959;SDS011;1994;48.640;8.894;2023-04-15T03:14:21;3.57;;;1.73;;
3959;SDS011;1994;48.640;8.894;2023-04-15T03:16:47;2.13;;;1.90;;
3959;SDS011;1994;48.640;8.894;2023-04-15T03:19:14;3.03;;;1.63;;
3959;SDS011;1994;48.640;8.894;2023-04-15T03:21:40;1.80;;;1.70;;
3959;SDS011;1994;48.640;8.894;2023-04-15T03:24:06;1.57;;;1.40;;
3959;SDS011;1994;48.640;8.894;2023-04-15T03:26:32;1.87;;;1.70;;
3959;SDS011;1994;48.640;8.894;2023-04-15T03:28:57;1.70;;;1.60;;
3959;SDS011;1994;48.640;8.894;2023-04-15T03:31:23;3.93;;;2.10;;
3959;SDS011;1994;48.640;8.894;2023-04-15T03:33:49;4.23;;;1.60;;
3959;SDS011;1994;48.640;8.894;2023-04-15T03:36:15;2.70;;;1.70;;
3959;SDS011;1994;48.640;8.894;2023-04-15T03:38:41;2.20;;;2.00;;
3959;SDS011;1994;48.640;8.894;2023-04-15T03:41:07;3.37;;;2.10;;
3959;SDS011;1994;48.640;8.894;2023-04-15T03:43:33;1.50;;;1.40;;
3959;SDS011;1994;48.640;8.894;2023-04-15T03:46:00;2.03;;;1.80;;
3959;SDS011;1994;48.640;8.894;2023-04-15T03:48:26;4.70;;;3.10;;
3959;SDS011;1994;48.640;8.894;2023-04-15T03:50:52;3.53;;;2.20;;
3959;SDS011;1994;48.640;8.894;2023-04-15T03:53:18;2.03;;;1.90;;
3959;SDS011;1994;48.640;8.894;2023-04-15T03:55:45;2.37;;;2.17;;
3959;SDS011;1994;48.640;8.894;2023-04-15T03:58:11;2.50;;;2.30;;
3959;SDS011;1994;48.640;8.894;2023-04-15T04:00:37;3.73;;;2.33;;
3959;SDS011;1994;48.640;8.894;2023-04-15T04:03:03;2.53;;;2.20;;
3959;SDS011;1994;48.640;8.894;2023-04-15T04:05:29;3.43;;;3.23;;
3959;SDS011;1994;48.640;8.894;2023-04-15T04:07:55;7.90;;;3.10;;
3959;SDS011;1994;48.640;8.894;2023-04-15T04:10:21;3.27;;;2.97;;
3959;SDS011;1994;48.640;8.894;2023-04-15T04:12:46;2.73;;;2.53;;
3959;SDS011;1994;48.640;8.894;2023-04-15T04:15:12;5.70;;;2.40;;
3959;SDS011;1994;48.640;8.894;2023-04-15T04:17:38;1.97;;;1.77;;
3959;SDS011;1994;48.640;8.894;2023-04-15T04:20:04;2.90;;;2.30;;
3959;SDS011;1994;48.640;8.894;2023-04-15T04:22:35;3.53;;;1.50;;
3959;SDS011;1994;48.640;8.894;2023-04-15T04:25:05;1.87;;;1.77;;
3959;SDS011;1994;48.640;8.894;2023-04-15T04:27:32;2.03;;;1.83;;
3959;SDS011;1994;48.640;8.894;2023-04-15T04:29:58;2.27;;;2.17;;
3959;SDS011;1994;48.640;8.894;2023-04-15T04:32:24;2.90;;;2.60;;
3959;SDS011;1994;48.640;8.894;2023-04-15T04:34:50;4.10;;;2.63;;
3959;SDS011;1994;48.640;8.894;2023-04-15T04:37:16;2.40;;;2.20;;
3959;SDS011;1994;48.640;8.894;2023-04-15T04:39:42;2.40;;;2.20;;
3959;SDS011;1994;48.640;8.894;2023-04-15T04:42:07;2.57;;;2.37;;
3959;SDS011;1994;48.640;8.894;2023-04-15T04:44:33;4.20;;;2.87;;
3959;SDS011;1994;48.640;8.894;2023-04-15T04:46:59;3.73;;;2.20;;
3959;SDS011;1994;48.640;8.894;2023-04-15T04:49:25;3.27;;;2.20;;
3959;SDS011;1994;48.640;8.894;2023-04-15T04:51:50;1.97;;;1.87;;
3959;SDS011;1994;48.640;8.894;2023-04-15T04:54:16;1.83;;;1.70;;
3959;SDS011;1994;48.640;8.894;2023-04-15T04:56:42;2.50;;;1.63;;
3959;SDS011;1994;48.640;8.894;2023-04-15T04:59:08;2.33;;;1.93;;
3959;SDS011;1994;48.640;8.894;2023-04-15T05:01:33;1.70;;;1.60;;
3959;SDS011;1994;48.640;8.894;2023-04-15T05:03:59;1.80;;;1.60;;
3959;SDS011;1994;48.640;8.894;2023-04-15T05:06:25;1.80;;;1.70;;
3959;SDS011;1994;48.640;8.894;2023-04-15T05:08:51;3.50;;;1.70;;
3959;SDS011;1994;48.640;8.894;2023-04-15T05:11:17;1.90;;;1.63;;
3959;SDS011;1994;48.640;8.894;2023-04-15T05:13:43;2.70;;;2.50;;
3959;SDS011;1994;48.640;8.894;2023-04-15T05:16:08;2.77;;;2.53;;
3959;SDS011;1994;48.640;8.894;2023-04-15T05:18:34;3.53;;;3.00;;
3959;SDS011;1994;48.640;8.894;2023-04-15T05:21:00;6.73;;;2.00;;
3959;SDS011;1994;48.640;8.894;2023-04-15T05:23:26;2.20;;;2.07;;
3959;SDS011;1994;48.640;8.894;2023-04-15T05:25:52;3.47;;;3.17;;
3959;SDS011;1994;48.640;8.894;2023-04-15T05:28:18;7.00;;;3.70;;
3959;SDS011;1994;48.640;8.894;2023-04-15T05:30:43;8.30;;;2.70;;
3959;SDS011;1994;48.640;8.894;2023-04-15T05:33:10;2.43;;;2.23;;
3959;SDS011;1994;48.640;8.894;2023-04-15T05:35:36;4.37;;;2.27;;
3959;SDS011;1994;48.640;8.894;2023-04-15T05:38:01;6.50;;;2.90;;
3959;SDS011;1994;48.640;8.894;2023-04-15T05:40:29;2.10;;;1.43;;
3959;SDS011;1994;48.640;8.894;2023-04-15T05:42:55;9.23;;;2.50;;
3959;SDS011;1994;48.640;8.894;2023-04-15T05:45:21;2.00;;;1.90;;
3959;SDS011;1994;48.640;8.894;2023-04-15T05:47:47;3.23;;;2.00;;
3959;SDS011;1994;48.640;8.894;2023-04-15T05:50:14;3.47;;;2.30;;
3959;SDS011;1994;48.640;8.894;2023-04-15T05:52:40;2.17;;;1.90;;
3959;SDS011;1994;48.640;8.894;2023-04-15T05:55:06;2.50;;;2.30;;
3959;SDS011;1994;48.640;8.894;2023-04-15T05:57:32;16.40;;;3.20;;
3959;SDS011;1994;48.640;8.894;2023-04-15T05:59:58;2.20;;;1.90;;
3959;SDS011;1994;48.640;8.894;2023-04-15T06:02:24;3.93;;;2.40;;
3959;SDS011;1994;48.640;8.894;2023-04-15T06:04:50;2.30;;;2.10;;
3959;SDS011;1994;48.640;8.894;2023-04-15T06:07:16;2.60;;;2.40;;
3959;SDS011;1994;48.640;8.894;2023-04-15T06:09:41;1.90;;;1.80;;
3959;SDS011;1994;48.640;8.894;2023-04-15T06:12:08;2.27;;;2.00;;
3959;SDS011;1994;48.640;8.894;2023-04-15T06:14:36;3.17;;;2.43;;
3959;SDS011;1994;48.640;8.894;2023-04-15T06:17:03;3.40;;;2.20;;
3959;SDS011;1994;48.640;8.894;2023-04-15T06:19:28;27.47;;;11.53;;
3959;SDS011;1994;48.640;8.894;2023-04-15T06:21:55;5.40;;;3.57;;
3959;SDS011;1994;48.640;8.894;2023-04-15T06:24:20;5.50;;;2.50;;
3959;SDS011;1994;48.640;8.894;2023-04-15T06:26:46;2.63;;;2.40;;
3959;SDS011;1994;48.640;8.894;2023-04-15T06:29:12;3.30;;;2.93;;
3959;SDS011;1994;48.640;8.894;2023-04-15T06:31:38;3.87;;;3.47;;
3959;SDS011;1994;48.640;8.894;2023-04-15T06:34:03;6.00;;;3.07;;
3959;SDS011;1994;48.640;8.894;2023-04-15T06:36:29;2.77;;;2.50;;
3959;SDS011;1994;48.640;8.894;2023-04-15T06:38:56;4.50;;;3.20;;
3959;SDS011;1994;48.640;8.894;2023-04-15T06:41:22;2.50;;;2.30;;
3959;SDS011;1994;48.640;8.894;2023-04-15T06:43:47;4.13;;;2.70;;
3959;SDS011;1994;48.640;8.894;2023-04-15T06:46:13;4.50;;;3.03;;
3959;SDS011;1994;48.640;8.894;2023-04-15T06:48:39;2.90;;;2.70;;
3959;SDS011;1994;48.640;8.894;2023-04-15T06:51:05;2.40;;;2.20;;
3959;SDS011;1994;48.640;8.894;2023-04-15T06:53:31;8.93;;;3.20;;
3959;SDS011;1994;48.640;8.894;2023-04-15T06:55:56;6.63;;;3.40;;
3959;SDS011;1994;48.640;8.894;2023-04-15T06:58:22;4.00;;;2.03;;
3959;SDS011;1994;48.640;8.894;2023-04-15T07:00:48;5.70;;;2.60;;
3959;SDS011;1994;48.640;8.894;2023-04-15T07:03:13;2.87;;;2.63;;
3959;SDS011;1994;48.640;8.894;2023-04-15T07:05:39;3.00;;;2.63;;
3959;SDS011;1994;48.640;8.894;2023-04-15T07:08:05;2.80;;;2.40;;
3959;SDS011;1994;48.640;8.894;2023-04-15T07:10:32;2.60;;;2.40;;
3959;SDS011;1994;48.640;8.894;2023-04-15T07:12:58;3.50;;;3.20;;
3959;SDS011;1994;48.640;8.894;2023-04-15T07:15:25;3.90;;;2.40;;
3959;SDS011;1994;48.640;8.894;2023-04-15T07:17:51;4.03;;;2.33;;
3959;SDS011;1994;48.640;8.894;2023-04-15T07:20:17;3.20;;;2.63;;
3959;SDS011;1994;48.640;8.894;2023-04-15T07:22:43;3.40;;;2.30;;
3959;SDS011;1994;48.640;8.894;2023-04-15T07:25:08;2.97;;;2.47;;
3959;SDS011;1994;48.640;8.894;2023-04-15T07:27:34;4.03;;;1.90;;
3959;SDS011;1994;48.640;8.894;2023-04-15T07:30:00;2.93;;;2.07;;
3959;SDS011;1994;48.640;8.894;2023-04-15T07:32:26;2.97;;;2.60;;
3959;SDS011;1994;48.640;8.894;2023-04-15T07:34:52;3.80;;;2.10;;
3959;SDS011;1994;48.640;8.894;2023-04-15T07:37:18;6.10;;;3.27;;
3959;SDS011;1994;48.640;8.894;2023-04-15T07:39:44;5.07;;;2.57;;
3959;SDS011;1994;48.640;8.894;2023-04-15T07:42:09;2.40;;;2.20;;
3959;SDS011;1994;48.640;8.894;2023-04-15T07:44:35;3.13;;;2.23;;
3959;SDS011;1994;48.640;8.894;2023-04-15T07:47:01;3.17;;;2.37;;
3959;SDS011;1994;48.640;8.894;2023-04-15T07:49:28;5.60;;;2.80;;
3959;SDS011;1994;48.640;8.894;2023-04-15T07:51:53;4.83;;;2.87;;
3959;SDS011;1994;48.640;8.894;2023-04-15T07:54:21;5.83;;;2.00;;
3959;SDS011;1994;48.640;8.894;2023-04-15T07:56:47;2.90;;;2.60;;
3959;SDS011;1994;48.640;8.894;2023-04-15T07:59:12;5.80;;;2.70;;
3959;SDS011;1994;48.640;8.894;2023-04-15T08:01:41;3.47;;;2.50;;
3959;SDS011;1994;48.640;8.894;2023-04-15T08:04:08;3.87;;;2.80;;
3959;SDS011;1994;48.640;8.894;2023-04-15T08:06:34;8.30;;;3.00;;
3959;SDS011;1994;48.640;8.894;2023-04-15T08:09:00;3.53;;;3.17;;
3959;SDS011;1994;48.640;8.894;2023-04-15T08:11:26;3.83;;;2.40;;
3959;SDS011;1994;48.640;8.894;2023-04-15T08:13:52;4.80;;;3.20;;
3959;SDS011;1994;48.640;8.894;2023-04-15T08:18:48;3.10;;;2.63;;
3959;SDS011;1994;48.640;8.894;2023-04-15T08:21:17;5.13;;;3.30;;
3959;SDS011;1994;48.640;8.894;2023-04-15T08:23:47;2.47;;;2.07;;
3959;SDS011;1994;48.640;8.894;2023-04-15T08:26:15;6.10;;;2.27;;
3959;SDS011;1994;48.640;8.894;2023-04-15T08:28:42;4.20;;;3.27;;
3959;SDS011;1994;48.640;8.894;2023-04-15T08:31:09;5.27;;;2.97;;
3959;SDS011;1994;48.640;8.894;2023-04-15T08:33:36;2.33;;;2.23;;
3959;SDS011;1994;48.640;8.894;2023-04-15T08:36:02;3.00;;;2.50;;
3959;SDS011;1994;48.640;8.894;2023-04-15T08:38:28;3.83;;;3.10;;
3959;SDS011;1994;48.640;8.894;2023-04-15T08:40:54;2.90;;;2.43;;
3959;SDS011;1994;48.640;8.894;2023-04-15T08:43:23;2.80;;;2.60;;
3959;SDS011;1994;48.640;8.894;2023-04-15T08:45:52;2.87;;;2.47;;
3959;SDS011;1994;48.640;8.894;2023-04-15T08:48:19;5.30;;;2.60;;
3959;SDS011;1994;48.640;8.894;2023-04-15T08:50:48;3.23;;;2.93;;
3959;SDS011;1994;48.640;8.894;2023-04-15T08:53:14;2.27;;;2.17;;
3959;SDS011;1994;48.640;8.894;2023-04-15T08:55:44;5.33;;;2.57;;
3959;SDS011;1994;48.640;8.894;2023-04-15T08:58:15;3.33;;;2.23;;
3959;SDS011;1994;48.640;8.894;2023-04-15T09:00:42;8.97;;;3.83;;
3959;SDS011;1994;48.640;8.894;2023-04-15T09:03:07;2.43;;;2.23;;
3959;SDS011;1994;48.640;8.894;2023-04-15T09:05:34;4.80;;;3.67;;
3959;SDS011;1994;48.640;8.894;2023-04-15T09:08:01;3.63;;;2.30;;
3959;SDS011;1994;48.640;8.894;2023-04-15T09:10:28;3.63;;;2.40;;
3959;SDS011;1994;48.640;8.894;2023-04-15T09:12:54;8.17;;;4.07;;
3959;SDS011;1994;48.640;8.894;2023-04-15T09:15:21;3.03;;;2.53;;
3959;SDS011;1994;48.640;8.894;2023-04-15T09:17:49;2.83;;;2.40;;
3959;SDS011;1994;48.640;8.894;2023-04-15T09:20:15;3.73;;;2.90;;
3959;SDS011;1994;48.640;8.894;2023-04-15T09:22:44;2.43;;;2.23;;
3959;SDS011;1994;48.640;8.894;2023-04-15T09:27:51;2.00;;;1.90;;
3959;SDS011;1994;48.640;8.894;2023-04-15T09:30:20;3.13;;;1.97;;
3959;SDS011;1994;48.640;8.894;2023-04-15T09:32:50;5.43;;;2.23;;
3959;SDS011;1994;48.640;8.894;2023-04-15T09:35:19;2.50;;;2.30;;
3959;SDS011;1994;48.640;8.894;2023-04-15T09:37:46;3.80;;;2.27;;
3959;SDS011;1994;48.640;8.894;2023-04-15T09:43:06;2.60;;;1.50;;
3959;SDS011;1994;48.640;8.894;2023-04-15T09:45:34;2.37;;;1.33;;
3959;SDS011;1994;48.640;8.894;2023-04-15T09:48:17;1.70;;;1.60;;
3959;SDS011;1994;48.640;8.894;2023-04-15T09:50:50;3.40;;;2.13;;
3959;SDS011;1994;48.640;8.894;2023-04-15T09:53:22;2.97;;;2.10;;
3959;SDS011;1994;48.640;8.894;2023-04-15T09:58:23;2.67;;;1.70;;
3959;SDS011;1994;48.640;8.894;2023-04-15T10:00:55;1.43;;;1.20;;
3959;SDS011;1994;48.640;8.894;2023-04-15T10:03:26;1.50;;;1.30;;
3959;SDS011;1994;48.640;8.894;2023-04-15T10:05:57;1.70;;;1.60;;
3959;SDS011;1994;48.640;8.894;2023-04-15T10:08:26;4.77;;;2.17;;
3959;SDS011;1994;48.640;8.894;2023-04-15T10:10:53;2.07;;;1.97;;
3959;SDS011;1994;48.640;8.894;2023-04-15T10:13:20;1.63;;;1.53;;
3959;SDS011;1994;48.640;8.894;2023-04-15T10:15:49;6.13;;;2.40;;
3959;SDS011;1994;48.640;8.894;2023-04-15T10:18:21;3.03;;;1.90;;
3959;SDS011;1994;48.640;8.894;2023-04-15T10:20:51;1.40;;;1.30;;
3959;SDS011;1994;48.640;8.894;2023-04-15T10:23:18;1.20;;;1.20;;
3959;SDS011;1994;48.640;8.894;2023-04-15T10:25:47;1.33;;;1.27;;
3959;SDS011;1994;48.640;8.894;2023-04-15T10:28:15;1.90;;;1.37;;
3959;SDS011;1994;48.640;8.894;2023-04-15T10:30:41;1.47;;;1.37;;
3959;SDS011;1994;48.640;8.894;2023-04-15T10:33:08;1.50;;;1.40;;
3959;SDS011;1994;48.640;8.894;2023-04-15T10:35:35;1.87;;;1.13;;
3959;SDS011;1994;48.640;8.894;2023-04-15T10:38:01;1.50;;;1.40;;
3959;SDS011;1994;48.640;8.894;2023-04-15T10:40:47;1.47;;;1.37;;
3959;SDS011;1994;48.640;8.894;2023-04-15T10:43:23;2.40;;;1.20;;
3959;SDS011;1994;48.640;8.894;2023-04-15T10:45:51;1.33;;;1.23;;
3959;SDS011;1994;48.640;8.894;2023-04-15T10:48:18;2.03;;;1.20;;
3959;SDS011;1994;48.640;8.894;2023-04-15T10:50:54;1.10;;;1.07;;
3959;SDS011;1994;48.640;8.894;2023-04-15T10:53:27;2.50;;;1.60;;
3959;SDS011;1994;48.640;8.894;2023-04-15T10:55:53;1.90;;;1.53;;
3959;SDS011;1994;48.640;8.894;2023-04-15T10:58:22;1.60;;;1.50;;
3959;SDS011;1994;48.640;8.894;2023-04-15T11:00:50;1.50;;;1.40;;
3959;SDS011;1994;48.640;8.894;2023-04-15T11:03:33;3.27;;;2.00;;
3959;SDS011;1994;48.640;8.894;2023-04-15T11:06:05;1.40;;;1.30;;
3959;SDS011;1994;48.640;8.894;2023-04-15T11:14:39;1.40;;;1.20;;
3959;SDS011;1994;48.640;8.894;2023-04-15T11:17:07;1.20;;;1.20;;
3959;SDS011;1994;48.640;8.894;2023-04-15T11:19:39;3.47;;;1.50;;
3959;SDS011;1994;48.640;8.894;2023-04-15T11:22:06;1.97;;;1.53;;
3959;SDS011;1994;48.640;8.894;2023-04-15T11:24:36;3.83;;;1.77;;
3959;SDS011;1994;48.640;8.894;2023-04-15T11:27:21;2.90;;;1.60;;
3959;SDS011;1994;48.640;8.894;2023-04-15T11:29:47;2.17;;;1.87;;
3959;SDS011;1994;48.640;8.894;2023-04-15T11:32:13;1.90;;;1.80;;
3959;SDS011;1994;48.640;8.894;2023-04-15T11:34:39;2.40;;;1.53;;
3959;SDS011;1994;48.640;8.894;2023-04-15T11:37:05;5.03;;;1.70;;
3959;SDS011;1994;48.640;8.894;2023-04-15T11:39:31;2.20;;;1.60;;
3959;SDS011;1994;48.640;8.894;2023-04-15T11:41:57;1.97;;;1.87;;
3959;SDS011;1994;48.640;8.894;2023-04-15T11:44:23;1.67;;;1.57;;
3959;SDS011;1994;48.640;8.894;2023-04-15T11:46:49;1.70;;;1.53;;
3959;SDS011;1994;48.640;8.894;2023-04-15T11:49:27;1.67;;;1.57;;
3959;SDS011;1994;48.640;8.894;2023-04-15T11:51:58;3.13;;;1.90;;
3959;SDS011;1994;48.640;8.894;2023-04-15T11:54:25;1.87;;;1.77;;
3959;SDS011;1994;48.640;8.894;2023-04-15T11:56:51;2.20;;;1.60;;
3959;SDS011;1994;48.640;8.894;2023-04-15T11:59:18;1.40;;;1.30;;
3959;SDS011;1994;48.640;8.894;2023-04-15T12:01:44;1.87;;;1.77;;
3959;SDS011;1994;48.640;8.894;2023-04-15T12:04:12;2.80;;;2.10;;
3959;SDS011;1994;48.640;8.894;2023-04-15T12:06:40;4.37;;;1.90;;
3959;SDS011;1994;48.640;8.894;2023-04-15T12:09:13;3.03;;;2.33;;
3959;SDS011;1994;48.640;8.894;2023-04-15T12:11:50;1.80;;;1.60;;
3959;SDS011;1994;48.640;8.894;2023-04-15T12:14:19;3.53;;;2.10;;
3959;SDS011;1994;48.640;8.894;2023-04-15T12:16:53;2.33;;;2.13;;
3959;SDS011;1994;48.640;8.894;2023-04-15T12:19:34;1.90;;;1.80;;
3959;SDS011;1994;48.640;8.894;2023-04-15T12:22:03;3.30;;;2.27;;
3959;SDS011;1994;48.640;8.894;2023-04-15T12:24:34;5.63;;;1.87;;
3959;SDS011;1994;48.640;8.894;2023-04-15T12:27:02;5.20;;;2.93;;
3959;SDS011;1994;48.640;8.894;2023-04-15T12:29:40;2.40;;;2.17;;
3959;SDS011;1994;48.640;8.894;2023-04-15T12:34:51;5.10;;;2.77;;
3959;SDS011;1994;48.640;8.894;2023-04-15T12:37:21;2.70;;;2.40;;
3959;SDS011;1994;48.640;8.894;2023-04-15T12:39:47;2.90;;;2.70;;
3959;SDS011;1994;48.640;8.894;2023-04-15T12:42:14;2.60;;;2.40;;
3959;SDS011;1994;48.640;8.894;2023-04-15T12:44:40;4.83;;;3.00;;
3959;SDS011;1994;48.640;8.894;2023-04-15T12:47:07;2.60;;;2.40;;
3959;SDS011;1994;48.640;8.894;2023-04-15T12:49:34;3.60;;;2.90;;
3959;SDS011;1994;48.640;8.894;2023-04-15T12:52:02;2.80;;;2.50;;
3959;SDS011;1994;48.640;8.894;2023-04-15T12:54:29;5.47;;;3.27;;
3959;SDS011;1994;48.640;8.894;2023-04-15T12:56:56;2.50;;;2.30;;
3959;SDS011;1994;48.640;8.894;2023-04-15T12:59:23;2.60;;;2.40;;
3959;SDS011;1994;48.640;8.894;2023-04-15T13:01:49;5.93;;;2.53;;
3959;SDS011;1994;48.640;8.894;2023-04-15T13:04:18;2.30;;;2.10;;
3959;SDS011;1994;48.640;8.894;2023-04-15T13:06:45;2.73;;;2.63;;
3959;SDS011;1994;48.640;8.894;2023-04-15T13:09:11;4.50;;;2.80;;
3959;SDS011;1994;48.640;8.894;2023-04-15T13:11:36;2.93;;;2.67;;
3959;SDS011;1994;48.640;8.894;2023-04-15T13:14:03;2.00;;;1.90;;
3959;SDS011;1994;48.640;8.894;2023-04-15T13:16:31;7.23;;;3.23;;
3959;SDS011;1994;48.640;8.894;2023-04-15T13:18:58;3.43;;;2.20;;
3959;SDS011;1994;48.640;8.894;2023-04-15T13:21:24;3.07;;;2.87;;
3959;SDS011;1994;48.640;8.894;2023-04-15T13:23:51;2.50;;;2.40;;
3959;SDS011;1994;48.640;8.894;2023-04-15T13:26:17;2.97;;;2.60;;
3959;SDS011;1994;48.640;8.894;2023-04-15T13:28:43;5.80;;;2.80;;
3959;SDS011;1994;48.640;8.894;2023-04-15T13:31:09;4.70;;;3.00;;
3959;SDS011;1994;48.640;8.894;2023-04-15T13:33:35;3.80;;;3.30;;
3959;SDS011;1994;48.640;8.894;2023-04-15T13:36:01;3.73;;;2.87;;
3959;SDS011;1994;48.640;8.894;2023-04-15T13:38:26;3.00;;;2.70;;
3959;SDS011;1994;48.640;8.894;2023-04-15T13:40:52;11.80;;;3.37;;
3959;SDS011;1994;48.640;8.894;2023-04-15T13:43:18;2.60;;;2.40;;
3959;SDS011;1994;48.640;8.894;2023-04-15T13:45:45;2.70;;;2.50;;
3959;SDS011;1994;48.640;8.894;2023-04-15T13:48:11;3.20;;;3.00;;
3959;SDS011;1994;48.640;8.894;2023-04-15T13:50:37;3.53;;;3.23;;
3959;SDS011;1994;48.640;8.894;2023-04-15T13:53:03;6.87;;;3.13;;
3959;SDS011;1994;48.640;8.894;2023-04-15T13:55:28;5.40;;;3.47;;
3959;SDS011;1994;48.640;8.894;2023-04-15T13:57:55;4.30;;;3.30;;
3959;SDS011;1994;48.640;8.894;2023-04-15T14:00:21;3.20;;;2.50;;
3959;SDS011;1994;48.640;8.894;2023-04-15T14:02:46;3.13;;;2.83;;
3959;SDS011;1994;48.640;8.894;2023-04-15T14:05:12;3.20;;;2.97;;
3959;SDS011;1994;48.640;8.894;2023-04-15T14:07:38;2.40;;;2.30;;
3959;SDS011;1994;48.640;8.894;2023-04-15T14:10:04;6.37;;;2.23;;
3959;SDS011;1994;48.640;8.894;2023-04-15T14:12:31;3.07;;;2.50;;
3959;SDS011;1994;48.640;8.894;2023-04-15T14:14:57;3.00;;;2.70;;
3959;SDS011;1994;48.640;8.894;2023-04-15T14:17:23;2.50;;;2.30;;
3959;SDS011;1994;48.640;8.894;2023-04-15T14:19:48;4.20;;;2.80;;
3959;SDS011;1994;48.640;8.894;2023-04-15T14:22:14;2.20;;;2.10;;
3959;SDS011;1994;48.640;8.894;2023-04-15T14:24:41;3.23;;;3.03;;
3959;SDS011;1994;48.640;8.894;2023-04-15T14:27:06;2.63;;;2.30;;
3959;SDS011;1994;48.640;8.894;2023-04-15T14:29:32;2.67;;;2.47;;
3959;SDS011;1994;48.640;8.894;2023-04-15T14:31:58;2.90;;;2.70;;
3959;SDS011;1994;48.640;8.894;2023-04-15T14:34:24;3.67;;;2.47;;
3959;SDS011;1994;48.640;8.894;2023-04-15T14:36:50;2.87;;;2.67;;
3959;SDS011;1994;48.640;8.894;2023-04-15T14:39:17;4.20;;;3.87;;
3959;SDS011;1994;48.640;8.894;2023-04-15T14:41:43;6.60;;;4.23;;
3959;SDS011;1994;48.640;8.894;2023-04-15T14:44:09;3.20;;;3.00;;
3959;SDS011;1994;48.640;8.894;2023-04-15T14:46:36;2.60;;;2.13;;
3959;SDS011;1994;48.640;8.894;2023-04-15T14:49:03;2.40;;;2.13;;
3959;SDS011;1994;48.640;8.894;2023-04-15T14:51:29;3.30;;;2.50;;
3959;SDS011;1994;48.640;8.894;2023-04-15T14:53:55;3.90;;;2.17;;
3959;SDS011;1994;48.640;8.894;2023-04-15T14:56:21;1.90;;;1.80;;
3959;SDS011;1994;48.640;8.894;2023-04-15T14:58:50;1.90;;;1.80;;
3959;SDS011;1994;48.640;8.894;2023-04-15T15:01:17;2.03;;;1.90;;
3959;SDS011;1994;48.640;8.894;2023-04-15T15:03:43;3.17;;;2.97;;
3959;SDS011;1994;48.640;8.894;2023-04-15T15:06:09;2.60;;;2.40;;
3959;SDS011;1994;48.640;8.894;2023-04-15T15:08:35;6.43;;;2.80;;
3959;SDS011;1994;48.640;8.894;2023-04-15T15:11:01;2.53;;;2.33;;
3959;SDS011;1994;48.640;8.894;2023-04-15T15:13:26;3.13;;;2.90;;
3959;SDS011;1994;48.640;8.894;2023-04-15T15:15:52;8.27;;;6.20;;
3959;SDS011;1994;48.640;8.894;2023-04-15T15:18:18;6.50;;;5.63;;
3959;SDS011;1994;48.640;8.894;2023-04-15T15:20:44;3.90;;;3.57;;
3959;SDS011;1994;48.640;8.894;2023-04-15T15:23:09;4.53;;;4.07;;
3959;SDS011;1994;48.640;8.894;2023-04-15T15:25:38;17.70;;;10.40;;
3959;SDS011;1994;48.640;8.894;2023-04-15T15:28:04;4.50;;;3.70;;
3959;SDS011;1994;48.640;8.894;2023-04-15T15:30:30;2.57;;;2.37;;
3959;SDS011;1994;48.640;8.894;2023-04-15T15:32:56;2.80;;;2.47;;